Time;durP1;ratioP1;P1;durP2;ratioP2;P2;SDS_P1;SDS_P2;PMS_P1;PMS_P2;Temp;Humidity;BMP_temperature;BMP_pressure;BME280_temperature;BME280_humidity;BME280_pressure;Samples;Min_cycle;Max_cycle;Signal;HPM_P1;HPM_P2
2023/03/31 00:02:12;;;;;;;0.20;0.20;;;;;;;10.24;100.00;100806.91;5053848;28;20138;-64
2023/03/31 00:04:51;;;;;;;0.20;0.20;;;;;;;10.28;100.00;100813.41;5054059;28;20021;-64
2023/03/31 00:07:20;;;;;;;0.20;0.20;;;;;;;10.26;100.00;100815.72;5054345;28;20021;-65
2023/03/31 00:09:53;;;;;;;0.20;0.20;;;;;;;10.19;100.00;100809.88;5053102;28;20051;-63
2023/03/31 00:12:20;;;;;;;0.20;0.20;;;;;;;10.09;100.00;100807.53;5053275;28;20036;-63
2023/03/31 00:14:50;;;;;;;0.20;0.20;;;;;;;10.04;100.00;100811.34;5053153;28;20052;-64
2023/03/31 00:17:18;;;;;;;0.20;0.20;;;;;;;10.05;100.00;100803.81;5053167;28;20032;-64
2023/03/31 00:19:48;;;;;;;0.20;0.20;;;;;;;10.09;100.00;100811.13;5053167;28;20041;-63
2023/03/31 00:22:17;;;;;;;0.20;0.20;;;;;;;10.13;100.00;100805.72;5053070;28;20086;-64
2023/03/31 00:24:43;;;;;;;0.30;0.30;;;;;;;10.07;100.00;100821.81;5053168;28;20029;-63
2023/03/31 00:27:12;;;;;;;0.20;0.20;;;;;;;10.01;100.00;100819.56;5053557;28;20025;-64
2023/03/31 00:29:40;;;;;;;0.20;0.20;;;;;;;10.04;100.00;100814.13;5052716;28;20028;-64
2023/03/31 00:32:09;;;;;;;0.20;0.20;;;;;;;10.01;100.00;100808.44;5053740;28;20426;-64
2023/03/31 00:34:39;;;;;;;0.20;0.20;;;;;;;9.94;100.00;100809.00;5052060;28;20025;-66
2023/03/31 00:37:08;;;;;;;0.20;0.20;;;;;;;10.00;100.00;100802.06;5052816;28;20029;-62
2023/03/31 00:39:36;;;;;;;0.20;0.20;;;;;;;9.97;100.00;100809.16;5052828;28;20033;-62
2023/03/31 00:42:07;;;;;;;0.20;0.20;;;;;;;9.88;100.00;100799.28;5053031;28;20368;-63
2023/03/31 00:44:58;;;;;;;0.20;0.20;;;;;;;9.94;100.00;100792.34;5052987;28;20135;-63
2023/03/31 00:47:28;;;;;;;0.20;0.20;;;;;;;9.92;100.00;100800.22;5051968;28;20391;-62
2023/03/31 00:49:58;;;;;;;0.20;0.20;;;;;;;9.94;100.00;100787.59;5052940;28;20521;-64
2023/03/31 00:52:29;;;;;;;0.20;0.20;;;;;;;9.95;100.00;100791.16;5052605;28;20059;-63
2023/03/31 00:55:04;;;;;;;0.20;0.20;;;;;;;9.85;100.00;100789.63;5052828;28;20064;-63
2023/03/31 00:57:38;;;;;;;0.20;0.20;;;;;;;9.89;100.00;100790.56;5052534;28;20033;-62
2023/03/31 01:00:17;;;;;;;0.20;0.20;;;;;;;9.82;100.00;100790.34;5052527;28;20029;-62
2023/03/31 01:02:51;;;;;;;0.20;0.20;;;;;;;9.75;100.00;100784.53;5054044;28;20063;-62
2023/03/31 01:05:22;;;;;;;;;;;;;;;9.74;100.00;100788.44;5053138;28;20036;-63
2023/03/31 01:07:49;;;;;;;0.20;0.20;;;;;;;9.77;100.00;100782.22;5069427;28;19951;-62
2023/03/31 01:10:23;;;;;;;0.20;0.20;;;;;;;9.82;100.00;100782.00;5052410;28;20025;-62
2023/03/31 01:12:53;;;;;;;0.20;0.20;;;;;;;9.89;100.00;100779.47;5052350;28;20036;-63
2023/03/31 01:15:21;;;;;;;0.20;0.20;;;;;;;9.80;100.00;100780.69;5052280;28;20493;-62
2023/03/31 01:17:54;;;;;;;0.20;0.20;;;;;;;9.76;100.00;100775.03;5053110;28;20353;-63
2023/03/31 01:20:26;;;;;;;0.20;0.20;;;;;;;9.82;100.00;100775.63;5054340;28;20036;-65
2023/03/31 01:23:37;;;;;;;0.20;0.20;;;;;;;9.78;100.00;100775.50;5054814;28;20471;-63
2023/03/31 01:26:37;;;;;;;0.20;0.20;;;;;;;9.77;100.00;100768.31;5040468;28;20049;-62
2023/03/31 01:29:26;;;;;;;0.20;0.20;;;;;;;9.71;100.00;100769.69;5052867;28;20047;-64
2023/03/31 01:32:18;;;;;;;0.20;0.20;;;;;;;9.63;100.00;100754.72;5052261;28;20080;-63
2023/03/31 01:35:02;;;;;;;0.20;0.20;;;;;;;9.69;100.00;100756.16;5052711;28;20033;-63
2023/03/31 01:38:06;;;;;;;0.20;0.20;;;;;;;9.71;100.00;100758.59;5052246;28;20067;-62
2023/03/31 01:40:48;;;;;;;0.20;0.20;;;;;;;9.72;100.00;100751.88;5053952;28;20033;-62
2023/03/31 01:43:35;;;;;;;0.20;0.20;;;;;;;9.75;100.00;100747.56;5052167;28;20032;-64
2023/03/31 01:46:27;;;;;;;0.20;0.20;;;;;;;9.74;100.00;100743.97;5054529;28;20029;-62
2023/03/31 01:49:11;;;;;;;0.20;0.20;;;;;;;9.68;100.00;100742.59;5057009;28;20021;-63
2023/03/31 01:51:52;;;;;;;0.30;0.30;;;;;;;9.63;100.00;100749.16;5056019;28;20056;-63
2023/03/31 01:54:27;;;;;;;0.20;0.20;;;;;;;9.58;100.00;100738.25;5055849;28;20123;-63
2023/03/31 01:57:05;;;;;;;0.20;0.20;;;;;;;9.64;100.00;100727.75;5056612;28;20041;-63
2023/03/31 01:59:40;;;;;;;0.20;0.20;;;;;;;9.74;100.00;100716.19;5056074;28;20033;-64
2023/03/31 02:02:20;;;;;;;0.20;0.20;;;;;;;9.72;100.00;100707.41;5055750;28;20075;-64
2023/03/31 02:04:52;;;;;;;0.20;0.20;;;;;;;9.73;100.00;100713.78;5055955;28;20029;-64
2023/03/31 02:07:26;;;;;;;0.20;0.20;;;;;;;9.64;100.00;100708.28;5055694;28;20100;-64
2023/03/31 02:10:00;;;;;;;0.20;0.20;;;;;;;9.61;100.00;100706.22;5075880;28;20039;-63
2023/03/31 02:12:32;;;;;;;0.20;0.20;;;;;;;9.57;100.00;100702.50;5076134;28;20494;-63
2023/03/31 02:14:59;;;;;;;0.20;0.20;;;;;;;9.61;100.00;100707.03;5076524;28;20067;-63
2023/03/31 02:17:31;;;;;;;0.20;0.20;;;;;;;9.65;100.00;100696.06;5076076;28;20121;-63
2023/03/31 02:20:11;;;;;;;0.20;0.20;;;;;;;9.64;100.00;100686.91;5092620;28;20433;-63
2023/03/31 02:22:39;;;;;;;0.20;0.20;;;;;;;9.58;100.00;100666.03;5076659;28;20039;-66
2023/03/31 02:25:14;;;;;;;0.20;0.20;;;;;;;9.66;100.00;100651.25;5075345;28;20039;-64
2023/03/31 02:27:45;;;;;;;0.20;0.20;;;;;;;9.67;100.00;100643.72;5092832;28;20044;-64
2023/03/31 02:30:14;;;;;;;0.20;0.20;;;;;;;9.65;100.00;100648.81;5091891;28;20036;-64
2023/03/31 02:32:45;;;;;;;0.20;0.20;;;;;;;9.68;100.00;100645.34;5092081;28;20033;-64
2023/03/31 02:35:20;;;;;;;0.20;0.20;;;;;;;9.43;100.00;100642.53;5075355;28;20032;-66
2023/03/31 02:37:48;;;;;;;0.20;0.20;;;;;;;9.32;100.00;100638.56;5092017;28;20040;-63
2023/03/31 02:40:21;;;;;;;0.20;0.20;;;;;;;9.33;100.00;100645.75;5092004;28;20110;-63
2023/03/31 02:42:49;;;;;;;0.20;0.20;;;;;;;9.33;100.00;100634.63;5075570;28;20369;-63
2023/03/31 02:45:49;;;;;;;0.20;0.20;;;;;;;9.35;100.00;100642.63;5091802;28;20035;-63
2023/03/31 02:48:28;;;;;;;0.20;0.20;;;;;;;9.07;100.00;100604.38;5092322;28;20021;-63
2023/03/31 02:51:07;;;;;;;0.20;0.20;;;;;;;9.26;100.00;100634.38;5091724;28;20135;-65
2023/03/31 02:53:41;;;;;;;0.20;0.20;;;;;;;9.30;100.00;100628.94;5091583;28;20056;-63
2023/03/31 02:56:40;;;;;;;0.20;0.20;;;;;;;9.16;100.00;100634.78;5091376;28;20107;-62
2023/03/31 02:59:15;;;;;;;0.20;0.20;;;;;;;9.12;100.00;100629.13;5092177;28;20169;-63
2023/03/31 03:01:56;;;;;;;0.20;0.20;;;;;;;9.21;100.00;100631.81;5091546;28;20490;-63
2023/03/31 03:04:52;;;;;;;0.20;0.20;;;;;;;9.19;100.00;100617.47;5091819;28;20028;-63
2023/03/31 03:07:48;;;;;;;0.20;0.20;;;;;;;9.08;100.00;100619.88;5074727;28;20123;-63
2023/03/31 03:10:26;;;;;;;0.20;0.20;;;;;;;9.08;100.00;100621.84;5097337;28;20032;-64
2023/03/31 03:13:00;;;;;;;0.20;0.20;;;;;;;8.74;100.00;100570.28;5095942;28;20032;-63
2023/03/31 03:15:32;;;;;;;0.20;0.20;;;;;;;8.65;100.00;100564.78;5078567;28;20039;-64
2023/03/31 03:17:58;;;;;;;0.20;0.20;;;;;;;8.87;100.00;100611.56;5078291;28;20024;-62
2023/03/31 03:20:24;;;;;;;0.20;0.20;;;;;;;8.82;100.00;100609.00;5078281;28;20024;-64
2023/03/31 03:22:52;;;;;;;0.20;0.20;;;;;;;8.76;100.00;100599.28;5077487;28;20497;-64
2023/03/31 03:25:24;;;;;;;0.25;0.25;;;;;;;8.74;100.00;100606.34;5077876;28;20051;-63
2023/03/31 03:27:51;;;;;;;0.20;0.20;;;;;;;8.77;100.00;100600.91;5077537;28;20451;-65
2023/03/31 03:30:18;;;;;;;0.20;0.20;;;;;;;8.84;100.00;100595.63;5077783;28;20502;-65
2023/03/31 03:32:43;;;;;;;0.20;0.20;;;;;;;8.88;100.00;100592.97;5077840;28;20081;-64
2023/03/31 03:35:09;;;;;;;0.20;0.20;;;;;;;8.91;100.00;100592.28;5077861;28;20024;-63
2023/03/31 03:37:37;;;;;;;0.20;0.20;;;;;;;8.87;100.00;100588.56;5077399;28;20039;-63
2023/03/31 03:40:07;;;;;;;0.20;0.20;;;;;;;8.78;100.00;100585.06;5077245;28;20024;-63
2023/03/31 03:42:38;;;;;;;0.20;0.20;;;;;;;8.82;100.00;100586.81;5077478;28;20410;-64
2023/03/31 03:45:06;;;;;;;0.20;0.20;;;;;;;8.83;100.00;100570.97;5077494;28;20543;-63
2023/03/31 03:47:35;;;;;;;0.20;0.20;;;;;;;8.80;100.00;100569.72;5077246;28;20032;-63
2023/03/31 03:50:04;;;;;;;0.20;0.20;;;;;;;8.86;100.00;100568.34;5077437;28;20024;-64
2023/03/31 03:52:34;;;;;;;0.20;0.20;;;;;;;8.86;100.00;100564.75;5096126;28;20469;-64
2023/03/31 03:55:02;;;;;;;0.20;0.20;;;;;;;8.84;100.00;100562.34;5078221;28;20020;-68
2023/03/31 03:57:32;;;;;;;0.20;0.20;;;;;;;8.80;100.00;100564.16;5076983;28;20032;-64
2023/03/31 04:00:09;;;;;;;0.20;0.20;;;;;;;8.77;100.00;100555.69;5076829;28;20024;-64
2023/03/31 04:02:34;;;;;;;0.20;0.20;;;;;;;8.76;100.00;100552.13;5077364;28;20382;-63
2023/03/31 04:05:00;;;;;;;0.20;0.20;;;;;;;8.93;100.00;100549.16;5076692;28;20032;-64
2023/03/31 04:07:27;;;;;;;0.30;0.30;;;;;;;9.01;100.00;100549.44;5076789;28;20036;-63
2023/03/31 04:09:58;;;;;;;0.20;0.20;;;;;;;8.95;100.00;100548.00;5093536;28;20047;-63
2023/03/31 04:12:28;;;;;;;0.20;0.20;;;;;;;8.87;100.00;100544.16;5076905;28;20032;-64
2023/03/31 04:14:56;;;;;;;0.20;0.20;;;;;;;8.86;100.00;100542.56;5076508;28;20023;-62
2023/03/31 04:17:31;;;;;;;0.28;0.28;;;;;;;8.90;100.00;100541.53;5093424;28;20028;-62
2023/03/31 04:20:06;;;;;;;0.20;0.20;;;;;;;8.78;100.00;100544.25;5076764;28;20124;-62
2023/03/31 04:22:34;;;;;;;0.20;0.20;;;;;;;8.73;100.00;100538.91;5076464;28;20110;-63
2023/03/31 04:25:13;;;;;;;0.20;0.20;;;;;;;8.72;100.00;100536.50;5076665;28;20108;-63
2023/03/31 04:27:53;;;;;;;0.20;0.20;;;;;;;8.69;100.00;100531.66;5076279;28;20064;-61
2023/03/31 04:30:24;;;;;;;0.20;0.20;;;;;;;8.75;100.00;100531.06;5076889;28;20024;-64
2023/03/31 04:32:54;;;;;;;0.20;0.20;;;;;;;8.90;100.00;100526.84;5094406;28;20103;-65
2023/03/31 04:35:27;;;;;;;0.20;0.20;;;;;;;8.84;100.00;100509.59;5093082;28;20122;-63
2023/03/31 04:37:57;;;;;;;0.20;0.20;;;;;;;8.84;100.00;100498.50;5093411;28;20032;-62
2023/03/31 04:40:25;;;;;;;0.20;0.20;;;;;;;8.88;100.00;100498.63;5093123;28;20118;-62
2023/03/31 04:42:53;;;;;;;0.20;0.20;;;;;;;8.92;100.00;100494.00;5094026;28;20035;-64
2023/03/31 04:45:18;;;;;;;0.20;0.20;;;;;;;8.95;100.00;100495.25;5076499;28;20058;-65
2023/03/31 04:47:47;;;;;;;0.20;0.20;;;;;;;8.96;100.00;100488.59;5092937;28;20024;-63
2023/03/31 04:50:15;;;;;;;0.20;0.20;;;;;;;8.99;100.00;100480.38;5076017;28;20031;-63
2023/03/31 04:52:40;;;;;;;0.20;0.20;;;;;;;8.93;100.00;100471.44;5076383;28;20118;-63
2023/03/31 04:55:07;;;;;;;0.20;0.20;;;;;;;9.01;100.00;100478.06;5076250;28;20531;-64
2023/03/31 04:57:32;;;;;;;0.20;0.20;;;;;;;9.01;100.00;100488.38;5076822;28;20447;-63
2023/03/31 05:00:00;;;;;;;0.20;0.20;;;;;;;9.01;100.00;100488.38;5075930;28;20039;-63
2023/03/31 05:02:28;;;;;;;0.20;0.20;;;;;;;9.09;100.00;100490.22;5075939;28;20088;-64
2023/03/31 05:04:54;;;;;;;0.20;0.20;;;;;;;9.27;100.00;100483.28;5075808;28;20091;-63
2023/03/31 05:07:19;;;;;;;0.20;0.20;;;;;;;9.71;100.00;100477.94;5076263;28;20048;-64
2023/03/31 05:09:48;;;;;;;0.30;0.30;;;;;;;10.13;100.00;100467.28;5093829;28;20084;-63
2023/03/31 05:12:19;;;;;;;0.20;0.20;;;;;;;10.70;100.00;100479.22;5075818;28;20020;-65
2023/03/31 05:14:49;;;;;;;0.20;0.20;;;;;;;11.24;97.51;100481.44;5093183;28;20032;-64
2023/03/31 05:17:20;;;;;;;0.20;0.20;;;;;;;11.61;93.21;100489.47;5092895;28;20462;-63
2023/03/31 05:19:45;;;;;;;0.20;0.20;;;;;;;11.80;91.73;100481.97;5077673;28;20504;-65
2023/03/31 05:22:13;;;;;;;0.20;0.20;;;;;;;12.28;88.45;100491.00;5082470;28;20106;-65
2023/03/31 05:24:41;;;;;;;0.20;0.20;;;;;;;12.65;86.35;100490.53;5082917;28;20050;-66
2023/03/31 05:27:09;;;;;;;0.20;0.20;;;;;;;12.59;83.84;100494.81;5082215;28;20028;-68
2023/03/31 05:29:35;;;;;;;0.20;0.20;;;;;;;12.55;83.67;100496.72;5082679;28;20032;-65
2023/03/31 05:32:03;;;;;;;0.20;0.20;;;;;;;12.95;84.26;100512.25;5100333;28;20028;-65
2023/03/31 05:34:29;;;;;;;0.20;0.20;;;;;;;13.59;79.90;100521.75;5082441;28;20360;-64
2023/03/31 05:36:57;;;;;;;0.20;0.20;;;;;;;13.57;78.65;100522.09;5082269;28;20066;-62
2023/03/31 05:39:26;;;;;;;0.20;0.20;;;;;;;13.91;79.46;100511.06;5100151;28;20024;-65
2023/03/31 05:41:51;;;;;;;0.20;0.20;;;;;;;14.15;78.19;100518.97;5082438;28;20020;-63
2023/03/31 05:44:21;;;;;;;0.20;0.20;;;;;;;14.97;74.10;100512.75;5082221;28;20039;-64
2023/03/31 05:46:49;;;;;;;0.20;0.20;;;;;;;15.58;70.30;100512.13;5099091;28;20020;-63
2023/03/31 05:49:17;;;;;;;0.20;0.20;;;;;;;16.23;68.29;100516.19;5083053;28;20065;-63
2023/03/31 05:51:42;;;;;;;0.20;0.20;;;;;;;16.72;65.21;100509.19;5082732;28;20070;-63
2023/03/31 05:54:08;;;;;;;0.20;0.20;;;;;;;17.15;62.87;100512.91;5082332;28;20419;-64
2023/03/31 05:56:35;;;;;;;0.20;0.20;;;;;;;17.63;60.48;100518.16;5081822;28;20118;-64
2023/03/31 05:59:03;;;;;;;0.20;0.20;;;;;;;17.95;58.22;100522.94;5081503;28;20028;-65
2023/03/31 06:01:29;;;;;;;0.20;0.20;;;;;;;18.06;56.54;100524.53;5082536;28;20405;-64
2023/03/31 06:03:55;;;;;;;0.20;0.20;;;;;;;18.32;56.07;100523.28;5082094;28;20028;-67
2023/03/31 06:06:21;;;;;;;0.20;0.20;;;;;;;18.83;55.93;100526.69;5100277;28;20054;-64
2023/03/31 06:08:50;;;;;;;0.20;0.20;;;;;;;19.08;53.50;100526.56;5066708;28;20053;-67
2023/03/31 06:11:21;;;;;;;0.20;0.20;;;;;;;19.33;50.19;100517.91;5058229;28;20028;-64
2023/03/31 06:13:48;;;;;;;0.20;0.20;;;;;;;18.07;53.37;100522.53;5059905;28;20391;-64
2023/03/31 06:16:19;;;;;;;0.20;0.20;;;;;;;17.99;55.00;100506.84;5058494;28;20115;-67
2023/03/31 06:18:50;;;;;;;0.20;0.20;;;;;;;17.95;54.58;100520.13;5058627;28;20032;-66
2023/03/31 06:21:17;;;;;;;0.20;0.20;;;;;;;17.80;55.49;100510.94;5058471;28;20494;-64
2023/03/31 06:23:45;;;;;;;0.20;0.20;;;;;;;17.20;57.67;100511.69;5058198;28;20036;-65
2023/03/31 06:26:16;;;;;;;0.20;0.20;;;;;;;17.80;55.65;100511.72;5058225;28;20472;-64
2023/03/31 06:28:42;;;;;;;0.20;0.20;;;;;;;17.63;55.41;100512.53;5059108;28;20464;-65
2023/03/31 06:31:20;;;;;;;0.20;0.20;;;;;;;18.42;53.29;100513.16;5057191;28;20476;-64
2023/03/31 06:33:46;;;;;;;0.20;0.20;;;;;;;18.79;54.15;100509.78;5055173;28;20436;-63
2023/03/31 06:36:15;;;;;;;0.20;0.20;;;;;;;19.38;50.45;100504.16;5054906;28;20082;-63
2023/03/31 06:38:42;;;;;;;0.20;0.20;;;;;;;19.34;50.61;100511.84;5055611;28;20060;-62
2023/03/31 06:41:11;;;;;;;0.20;0.20;;;;;;;19.79;49.32;100505.44;5054874;28;20094;-63
2023/03/31 06:43:37;;;;;;;0.20;0.20;;;;;;;19.88;48.93;100517.88;5054688;28;20033;-62
2023/03/31 06:46:03;;;;;;;0.20;0.20;;;;;;;19.91;49.03;100501.28;5054597;28;20040;-63
2023/03/31 06:48:30;;;;;;;0.13;0.13;;;;;;;19.98;48.39;100504.06;5055139;28;20020;-62
2023/03/31 06:50:59;;;;;;;0.20;0.20;;;;;;;19.68;48.72;100502.72;5054822;28;20105;-65
2023/03/31 06:53:28;;;;;;;0.20;0.20;;;;;;;19.19;50.88;100503.91;5054469;28;20037;-65
2023/03/31 06:55:54;;;;;;;0.20;0.20;;;;;;;19.65;48.81;100509.19;5055734;28;20025;-62
2023/03/31 06:58:19;;;;;;;0.20;0.20;;;;;;;20.33;46.77;100514.94;5054501;28;20489;-65
2023/03/31 07:00:45;;;;;;;0.17;0.17;;;;;;;20.63;47.39;100517.03;5054726;28;20040;-64
2023/03/31 07:03:11;;;;;;;0.20;0.20;;;;;;;20.99;45.05;100521.41;5054272;28;20068;-64
2023/03/31 07:05:39;;;;;;;0.10;0.10;;;;;;;20.95;45.49;100523.47;5054271;28;20028;-62
2023/03/31 07:08:09;;;;;;;0.10;0.10;;;;;;;21.03;44.91;100516.47;5054409;28;20052;-62
2023/03/31 07:10:37;;;;;;;0.20;0.20;;;;;;;20.60;45.28;100511.41;5054181;28;20098;-63
2023/03/31 07:13:05;;;;;;;0.20;0.20;;;;;;;21.57;43.26;100510.81;5054757;28;20033;-62
2023/03/31 07:15:33;;;;;;;0.20;0.20;;;;;;;21.19;41.86;100513.81;5054211;28;20455;-62
2023/03/31 07:18:01;;;;;;;0.20;0.20;;;;;;;20.51;43.40;100508.31;5054092;28;20025;-64
2023/03/31 07:20:29;;;;;;;0.20;0.20;;;;;;;19.59;46.41;100516.50;5054272;28;20037;-62
2023/03/31 07:22:57;;;;;;;0.20;0.20;;;;;;;19.10;48.38;100516.44;5054049;28;20086;-62
2023/03/31 07:25:25;;;;;;;0.20;0.20;;;;;;;18.75;50.63;100514.66;5054267;28;20086;-63
2023/03/31 07:27:51;;;;;;;0.20;0.20;;;;;;;19.28;48.27;100512.69;5054512;28;20127;-62
2023/03/31 07:30:21;;;;;;;0.20;0.20;;;;;;;18.75;48.13;100513.84;5054183;28;20542;-63
2023/03/31 07:32:53;;;;;;;0.20;0.20;;;;;;;18.62;48.36;100521.13;5055464;28;20371;-63
2023/03/31 07:35:22;;;;;;;0.20;0.20;;;;;;;18.73;47.66;100525.53;5054010;28;20452;-63
2023/03/31 07:37:51;;;;;;;0.20;0.20;;;;;;;19.19;47.89;100518.81;5053375;28;20021;-64
2023/03/31 07:40:23;;;;;;;0.20;0.20;;;;;;;19.56;47.61;100506.84;5053665;28;20043;-63
2023/03/31 07:42:50;;;;;;;0.20;0.20;;;;;;;19.37;46.61;100496.09;5053337;28;20029;-63
2023/03/31 07:45:20;;;;;;;0.20;0.20;;;;;;;18.97;48.94;100501.25;5053553;28;20598;-63
2023/03/31 07:47:52;;;;;;;0.20;0.20;;;;;;;18.48;49.82;100491.00;5053882;28;20033;-65
2023/03/31 07:50:18;;;;;;;0.20;0.20;;;;;;;17.64;51.35;100502.06;5053868;28;20452;-65
2023/03/31 07:52:43;;;;;;;0.20;0.20;;;;;;;17.88;51.33;100506.06;5053854;28;20032;-63
2023/03/31 07:55:12;;;;;;;0.20;0.20;;;;;;;17.73;51.32;100505.28;5054738;28;20036;-64
2023/03/31 07:57:39;;;;;;;0.20;0.20;;;;;;;18.30;51.51;100505.97;5055046;28;20056;-63
2023/03/31 08:00:07;;;;;;;0.20;0.20;;;;;;;19.00;48.90;100499.59;5053582;28;20029;-63
2023/03/31 08:02:34;;;;;;;0.20;0.20;;;;;;;18.62;49.55;100510.66;5055214;28;20021;-64
2023/03/31 08:05:00;;;;;;;0.20;0.20;;;;;;;19.01;47.51;100493.53;5053515;28;20111;-63
2023/03/31 08:07:29;;;;;;;0.20;0.20;;;;;;;19.41;46.38;100508.16;5053811;28;20076;-64
2023/03/31 08:09:59;;;;;;;0.20;0.20;;;;;;;19.06;46.73;100512.84;5076432;28;20028;-64
2023/03/31 08:12:28;;;;;;;0.20;0.20;;;;;;;19.37;46.07;100516.66;5076964;28;20036;-65
2023/03/31 08:14:53;;;;;;;0.20;0.20;;;;;;;19.54;44.64;100511.28;5075750;28;20027;-65
2023/03/31 08:17:23;;;;;;;0.20;0.20;;;;;;;19.58;45.61;100495.13;5076440;28;20028;-63
2023/03/31 08:19:50;;;;;;;0.20;0.20;;;;;;;19.37;46.93;100496.91;5076612;28;20436;-64
2023/03/31 08:22:16;;;;;;;0.20;0.20;;;;;;;19.98;44.55;100487.13;5076882;28;20032;-62
2023/03/31 08:24:41;;;;;;;0.15;0.15;;;;;;;20.51;43.66;100485.72;5076287;28;20545;-61
2023/03/31 08:27:09;;;;;;;0.20;0.20;;;;;;;20.52;43.65;100485.28;5077026;28;20038;-62
2023/03/31 08:29:37;;;;;;;0.20;0.20;;;;;;;20.30;44.34;100487.56;5076392;28;20070;-64
2023/03/31 08:32:08;;;;;;;0.10;0.10;;;;;;;20.75;43.69;100493.03;5094562;28;20106;-63
2023/03/31 08:34:33;;;;;;;0.20;0.20;;;;;;;21.03;42.29;100502.34;5076613;28;20379;-62
2023/03/31 08:37:01;;;;;;;0.17;0.17;;;;;;;21.00;42.59;100495.53;5076246;28;20028;-64
2023/03/31 08:39:27;;;;;;;0.20;0.20;;;;;;;21.55;42.03;100496.28;5075684;28;20035;-62
2023/03/31 08:42:05;;;;;;;0.20;0.20;;;;;;;22.14;40.47;100509.81;5076297;28;20470;-62
2023/03/31 08:44:45;;;;;;;0.20;0.20;;;;;;;23.04;38.79;100503.06;5093726;28;20032;-62
2023/03/31 08:47:19;;;;;;;0.20;0.20;;;;;;;23.27;37.06;100489.50;5093233;28;20054;-63
2023/03/31 08:50:07;;;;;;;0.10;0.10;;;;;;;24.15;35.34;100489.72;5093512;28;20024;-62
2023/03/31 08:52:40;;;;;;;0.20;0.20;;;;;;;23.69;35.07;100481.19;5075574;28;20039;-61
2023/03/31 08:55:16;;;;;;;0.10;0.10;;;;;;;22.76;35.30;100482.59;5075672;28;20386;-63
2023/03/31 08:58:14;;;;;;;0.10;0.10;;;;;;;23.64;33.77;100478.09;5076221;28;20028;-64
2023/03/31 09:01:01;;;;;;;0.10;0.10;;;;;;;23.53;32.61;100479.13;5092420;28;20107;-63
2023/03/31 09:04:01;;;;;;;0.10;0.10;;;;;;;23.42;31.30;100477.81;5093763;28;20453;-63
2023/03/31 09:06:40;;;;;;;0.10;0.10;;;;;;;23.32;32.57;100470.34;5075814;28;20131;-63
2023/03/31 09:09:10;;;;;;;0.10;0.10;;;;;;;22.73;32.42;100472.13;5075242;28;20052;-63
2023/03/31 09:11:45;;;;;;;0.10;0.10;;;;;;;21.79;34.98;100463.13;5075520;28;20034;-62
2023/03/31 09:14:40;;;;;;;0.10;0.10;;;;;;;22.43;35.56;100474.00;5092259;28;20073;-64
2023/03/31 09:17:28;;;;;;;0.10;0.10;;;;;;;22.22;37.45;100466.72;5075450;28;20028;-64
2023/03/31 09:20:06;;;;;;;0.10;0.10;;;;;;;21.51;38.44;100468.03;5092196;28;20119;-63
2023/03/31 09:22:43;;;;;;;0.20;0.20;;;;;;;20.31;41.53;100462.91;5092682;28;20436;-62
2023/03/31 09:25:15;;;;;;;0.20;0.20;;;;;;;21.44;39.81;100465.34;5093771;28;20481;-64
2023/03/31 09:27:43;;;;;;;0.10;0.10;;;;;;;21.81;39.37;100469.94;5093115;28;20474;-66
2023/03/31 09:30:26;;;;;;;0.10;0.10;;;;;;;21.76;38.29;100466.78;5093784;28;20031;-61
2023/03/31 09:33:30;;;;;;;0.10;0.10;;;;;;;22.10;38.63;100464.53;5075400;28;20471;-64
2023/03/31 09:36:00;;;;;;;0.20;0.20;;;;;;;21.79;40.09;100461.06;5044484;28;20097;-62
2023/03/31 09:38:30;;;;;;;0.20;0.20;;;;;;;21.47;41.15;100455.19;5075842;28;20178;-63
2023/03/31 09:41:04;;;;;;;0.13;0.13;;;;;;;21.32;41.87;100449.78;5075374;28;20028;-64
2023/03/31 09:43:37;;;;;;;0.20;0.20;;;;;;;21.13;43.39;100450.44;5075438;28;20028;-66
2023/03/31 09:46:14;;;;;;;0.20;0.20;;;;;;;21.50;42.38;100445.81;5093290;28;20027;-66
2023/03/31 09:48:45;;;;;;;0.20;0.20;;;;;;;21.54;42.48;100450.19;5093134;28;20118;-66
2023/03/31 09:51:22;;;;;;;0.20;0.20;;;;;;;21.61;43.30;100446.44;5076101;28;20118;-65
2023/03/31 09:53:51;;;;;;;0.20;0.20;;;;;;;21.37;43.78;100423.81;5075958;28;20340;-64
2023/03/31 09:56:49;;;;;;;0.13;0.13;;;;;;;21.31;44.02;100428.38;5075622;28;20085;-64
2023/03/31 09:59:34;;;;;;;0.20;0.20;;;;;;;21.13;43.59;100419.34;5087673;28;20028;-65
2023/03/31 10:02:24;;;;;;;0.20;0.20;;;;;;;21.21;43.77;100409.50;5075716;28;20038;-66
2023/03/31 10:04:52;;;;;;;0.20;0.20;;;;;;;21.31;43.89;100413.41;5092781;28;20375;-66
2023/03/31 10:07:25;;;;;;;0.20;0.20;;;;;;;21.67;42.33;100413.56;5078108;28;20498;-64
2023/03/31 10:09:53;;;;;;;0.13;0.13;;;;;;;21.54;42.48;100409.75;5078815;28;20048;-62
2023/03/31 10:12:24;;;;;;;0.17;0.17;;;;;;;21.24;40.57;100400.16;5079055;28;20059;-61
2023/03/31 10:15:01;;;;;;;0.20;0.20;;;;;;;21.42;40.22;100399.88;5095549;28;20040;-61
2023/03/31 10:17:27;;;;;;;0.20;0.20;;;;;;;21.61;40.23;100401.13;5079247;28;20062;-61
2023/03/31 10:20:07;;;;;;;0.17;0.17;;;;;;;20.55;43.17;100379.03;5079498;28;20424;-64
2023/03/31 10:22:42;;;;;;;0.20;0.20;;;;;;;20.50;44.42;100380.31;5078644;28;20028;-64
2023/03/31 10:25:22;;;;;;;0.10;0.10;;;;;;;20.82;43.30;100377.00;5078616;28;20471;-66
2023/03/31 10:27:52;;;;;;;0.20;0.20;;;;;;;21.36;42.79;100368.44;5078403;28;20028;-62
2023/03/31 10:30:23;;;;;;;0.20;0.20;;;;;;;20.92;43.73;100367.53;5095370;28;20028;-64
2023/03/31 10:32:53;;;;;;;0.20;0.20;;;;;;;20.73;45.69;100356.97;5078949;28;20020;-66
2023/03/31 10:35:28;;;;;;;0.10;0.10;;;;;;;20.93;45.69;100363.50;5094910;28;20028;-66
2023/03/31 10:38:03;;;;;;;0.15;0.15;;;;;;;20.98;45.68;100372.72;5078177;28;20028;-63
2023/03/31 10:40:31;;;;;;;0.10;0.10;;;;;;;21.15;44.97;100361.09;5078171;28;20122;-66
2023/03/31 10:43:15;;;;;;;0.20;0.20;;;;;;;20.85;44.11;100364.84;5078264;28;20497;-65
2023/03/31 10:45:48;;;;;;;0.20;0.20;;;;;;;20.84;44.22;100368.09;5078528;28;20028;-63
2023/03/31 10:48:24;;;;;;;0.10;0.10;;;;;;;20.72;44.14;100372.34;5096392;28;20028;-66
2023/03/31 10:50:57;;;;;;;0.20;0.20;;;;;;;20.58;44.07;100370.50;5078651;28;20093;-64
2023/03/31 10:53:23;;;;;;;0.20;0.20;;;;;;;20.75;43.51;100360.16;5078144;28;20115;-64
2023/03/31 10:56:04;;;;;;;0.20;0.20;;;;;;;21.03;42.43;100361.69;5078153;28;20119;-64
2023/03/31 10:58:58;;;;;;;0.20;0.20;;;;;;;20.91;43.13;100363.13;5094759;28;20034;-65
2023/03/31 11:01:44;;;;;;;0.10;0.10;;;;;;;20.58;43.41;100345.06;5095288;28;20441;-65
2023/03/31 11:04:43;;;;;;;0.10;0.10;;;;;;;20.42;44.13;100337.22;5094746;28;20085;-65
2023/03/31 11:07:33;;;;;;;0.10;0.10;;;;;;;20.38;45.29;100330.81;5077841;28;20028;-65
2023/03/31 11:10:17;;;;;;;0.20;0.20;;;;;;;20.45;45.57;100334.75;5078163;28;20040;-64
2023/03/31 11:13:05;;;;;;;0.10;0.10;;;;;;;20.09;46.93;100312.69;5095111;28;20020;-66
2023/03/31 11:16:00;;;;;;;0.10;0.10;;;;;;;20.32;47.55;100317.59;5076988;28;20040;-66
2023/03/31 11:18:47;;;;;;;0.10;0.10;;;;;;;20.07;47.79;100306.63;5077110;28;20188;-65
2023/03/31 11:21:30;;;;;;;0.20;0.20;;;;;;;20.49;47.09;100313.72;5077614;28;20035;-65
2023/03/31 11:24:10;;;;;;;;;;;;;;;20.75;46.84;100302.81;5078561;28;20513;-66
2023/03/31 11:27:00;;;;;;;0.17;0.17;;;;;;;20.85;46.34;100305.44;5094846;28;19976;-66
2023/03/31 11:29:44;;;;;;;0.20;0.20;;;;;;;21.23;45.61;100302.34;5077656;28;20149;-66
2023/03/31 11:32:27;;;;;;;;;;;;;;;21.45;44.36;100297.09;5077818;28;20112;-65
2023/03/31 11:35:03;;;;;;;0.13;0.13;;;;;;;21.60;43.76;100291.94;5094129;28;19912;-65
2023/03/31 11:37:34;;;;;;;0.10;0.10;;;;;;;21.50;43.01;100293.75;5077179;28;20075;-64
2023/03/31 11:40:32;;;;;;;0.10;0.10;;;;;;;21.66;42.14;100281.72;5077815;28;20047;-64
2023/03/31 11:43:10;;;;;;;0.20;0.20;;;;;;;21.20;38.92;100260.78;5094341;28;20119;-64
2023/03/31 11:46:14;;;;;;;0.20;0.20;;;;;;;21.36;37.95;100274.22;5094539;28;20347;-63
2023/03/31 11:48:44;;;;;;;0.20;0.20;;;;;;;20.30;33.52;100270.00;5044295;28;20483;-63
2023/03/31 11:51:23;;;;;;;0.20;0.20;;;;;;;20.60;30.77;100269.13;5076917;28;20031;-65
2023/03/31 11:53:52;;;;;;;0.20;0.20;;;;;;;20.99;30.17;100261.19;5076853;28;20031;-65